Time;durP1;ratioP1;P1;durP2;ratioP2;P2;SDS_P1;SDS_P2;PMS_P1;PMS_P2;Temp;Humidity;BMP_temperature;BMP_pressure;BME280_temperature;BME280_humidity;BME280_pressure;Samples;Min_cycle;Max_cycle;Signal;HPM_P1;HPM_P2
2022/05/27 00:00:53;;;;;;;1.50;1.30;;;14.60;99.90;;;;;;4189513;28;20093;-62
2022/05/27 00:02:54;;;;;;;5.00;1.40;;;14.50;99.90;;;;;;4190681;28;20516;-63
2022/05/27 00:04:55;;;;;;;3.80;1.50;;;14.50;99.90;;;;;;4190591;28;20032;-63
2022/05/27 00:06:56;;;;;;;5.70;1.70;;;14.50;99.90;;;;;;4174827;28;20868;-62
2022/05/27 00:08:57;;;;;;;3.57;1.60;;;14.40;99.90;;;;;;4174256;28;20033;-62
2022/05/27 00:11:00;;;;;;;2.40;1.20;;;14.40;99.90;;;;;;4173977;28;20481;-63
2022/05/27 00:13:02;;;;;;;6.07;1.57;;;14.40;99.90;;;;;;4173763;28;20086;-62
2022/05/27 00:15:03;;;;;;;3.17;1.30;;;14.40;99.90;;;;;;4173845;28;20067;-63
2022/05/27 00:17:05;;;;;;;2.90;1.53;;;14.40;99.90;;;;;;4157923;28;20065;-62
2022/05/27 00:19:06;;;;;;;2.97;1.33;;;14.40;99.90;;;;;;4173915;28;20138;-62
2022/05/27 00:21:08;;;;;;;2.90;1.20;;;14.40;99.90;;;;;;4190849;28;20097;-62
2022/05/27 00:23:09;;;;;;;2.00;1.47;;;14.50;99.90;;;;;;4190207;28;20093;-62
2022/05/27 00:25:11;;;;;;;4.63;1.40;;;14.50;99.90;;;;;;4190563;28;20083;-62
2022/05/27 00:27:12;;;;;;;3.33;1.20;;;14.50;99.90;;;;;;4190055;28;20029;-62
2022/05/27 00:29:13;;;;;;;3.57;1.40;;;14.50;99.90;;;;;;4190413;28;20017;-62
2022/05/27 00:31:18;;;;;;;2.23;1.30;;;14.50;99.90;;;;;;4190391;28;20044;-64
2022/05/27 00:33:19;;;;;;;2.93;1.17;;;14.50;99.90;;;;;;4185857;28;20489;-62
2022/05/27 00:35:21;;;;;;;4.80;1.20;;;14.50;99.90;;;;;;4173918;28;20079;-64
2022/05/27 00:37:22;;;;;;;2.57;1.20;;;14.50;99.90;;;;;;4173251;28;20033;-62
2022/05/27 00:39:23;;;;;;;1.80;1.00;;;14.50;99.90;;;;;;4174827;28;20587;-63
2022/05/27 00:41:24;;;;;;;3.83;1.17;;;14.50;99.90;;;;;;4173490;28;20049;-63
2022/05/27 00:43:25;;;;;;;1.50;1.30;;;14.50;99.90;;;;;;4174270;28;20439;-62
2022/05/27 00:45:28;;;;;;;3.27;1.50;;;14.50;99.90;;;;;;4173231;28;20033;-63
2022/05/27 00:47:35;;;;;;;1.00;0.80;;;14.50;99.90;;;;;;4174018;28;20543;-63
2022/05/27 00:49:47;;;;;;;1.73;1.27;;;14.50;99.90;;;;;;4186151;28;20094;-62
2022/05/27 00:52:10;;;;;;;2.40;0.97;;;14.50;99.90;;;;;;4190190;28;20052;-63
2022/05/27 00:54:16;;;;;;;1.70;1.00;;;14.50;99.90;;;;;;4189414;28;20097;-63
2022/05/27 00:56:20;;;;;;;1.73;1.40;;;14.40;99.90;;;;;;4189826;28;20032;-63
2022/05/27 00:58:29;;;;;;;4.00;1.00;;;14.40;99.90;;;;;;4189547;28;20423;-63
2022/05/27 01:00:30;;;;;;;5.23;1.30;;;14.40;99.90;;;;;;4175274;28;20033;-64
2022/05/27 01:02:36;;;;;;;5.67;1.10;;;14.40;99.90;;;;;;4172551;28;20544;-64
2022/05/27 01:04:38;;;;;;;2.80;1.00;;;14.40;99.90;;;;;;4173612;28;20106;-63
2022/05/27 01:06:39;;;;;;;2.00;1.07;;;14.40;99.90;;;;;;4172654;28;20079;-62
2022/05/27 01:08:41;;;;;;;4.73;1.30;;;14.30;99.90;;;;;;4173937;28;20037;-63
2022/05/27 01:11:04;;;;;;;4.53;1.57;;;14.30;99.90;;;;;;4172472;28;20049;-63
2022/05/27 01:13:25;;;;;;;4.17;1.03;;;14.30;99.90;;;;;;4173374;28;20098;-63
2022/05/27 01:15:41;;;;;;;2.13;1.30;;;14.30;99.90;;;;;;4172691;28;20424;-64
2022/05/27 01:21:05;;;;;;;1.90;1.00;;;14.30;99.90;;;;;;4127835;28;20522;-63
2022/05/27 01:23:09;;;;;;;3.97;1.47;;;14.40;99.90;;;;;;4154882;28;20489;-62
2022/05/27 01:25:37;;;;;;;3.13;1.30;;;14.40;99.90;;;;;;4180625;28;20037;-63
2022/05/27 01:27:56;;;;;;;1.80;1.00;;;14.40;99.90;;;;;;4189617;28;20431;-62
2022/05/27 01:30:15;;;;;;;2.50;0.87;;;14.40;99.90;;;;;;4189136;28;20028;-63
2022/05/27 01:32:27;;;;;;;2.23;0.90;;;14.40;99.90;;;;;;4188927;28;20101;-62
2022/05/27 01:34:55;;;;;;;2.83;1.00;;;14.40;99.90;;;;;;4189720;28;20051;-66
2022/05/27 01:37:09;;;;;;;2.77;0.90;;;14.50;99.90;;;;;;4189046;28;20074;-66
2022/05/27 01:39:38;;;;;;;1.27;0.73;;;14.50;99.90;;;;;;4178497;28;20378;-63
2022/05/27 01:41:57;;;;;;;1.13;0.80;;;14.50;99.90;;;;;;4172643;28;20029;-63
2022/05/27 01:44:11;;;;;;;3.40;1.00;;;14.50;99.90;;;;;;4172997;28;20025;-63
2022/05/27 01:46:16;;;;;;;1.70;1.20;;;14.60;99.90;;;;;;4172242;28;20025;-63
2022/05/27 01:48:27;;;;;;;3.57;1.10;;;14.50;99.90;;;;;;4172785;28;20037;-63
2022/05/27 01:50:34;;;;;;;1.30;0.97;;;14.50;99.90;;;;;;4185862;28;20085;-62
2022/05/27 01:52:51;;;;;;;4.00;1.83;;;14.50;99.90;;;;;;4187970;28;20052;-64
2022/05/27 01:55:18;;;;;;;3.77;1.10;;;14.50;99.90;;;;;;4182303;28;20021;-62
2022/05/27 01:57:45;;;;;;;2.73;1.23;;;14.50;99.90;;;;;;4173531;28;20475;-65
2022/05/27 01:59:52;;;;;;;2.70;1.00;;;14.50;99.90;;;;;;4186352;28;20769;-63
2022/05/27 02:02:07;;;;;;;1.67;1.00;;;14.40;99.90;;;;;;4173872;28;20029;-64
2022/05/27 02:04:21;;;;;;;1.30;1.10;;;14.40;99.90;;;;;;4172840;28;20037;-64
2022/05/27 02:06:31;;;;;;;4.27;0.87;;;14.40;99.90;;;;;;4172340;28;20071;-62
2022/05/27 02:08:56;;;;;;;4.50;1.95;;;14.40;99.90;;;;;;4172933;28;20071;-62
2022/05/27 02:11:05;;;;;;;1.67;1.10;;;14.40;99.90;;;;;;4151630;28;20037;-62
2022/05/27 02:13:40;;;;;;;3.33;1.00;;;14.30;99.90;;;;;;4172052;28;20065;-62
2022/05/27 02:15:45;;;;;;;4.40;1.20;;;14.30;99.90;;;;;;4170254;28;20032;-63
2022/05/27 02:17:54;;;;;;;1.40;1.07;;;14.20;99.90;;;;;;4189564;28;20028;-62
2022/05/27 02:20:04;;;;;;;2.93;1.30;;;14.20;99.90;;;;;;4155707;28;20535;-63
2022/05/27 02:22:11;;;;;;;4.15;1.25;;;14.20;99.90;;;;;;4155871;28;20482;-63
2022/05/27 02:24:36;;;;;;;3.53;1.00;;;14.20;99.90;;;;;;4155764;28;20783;-64
2022/05/27 02:26:42;;;;;;;2.90;1.20;;;14.10;99.90;;;;;;4164722;28;20028;-62
2022/05/27 02:28:48;;;;;;;4.60;1.10;;;14.10;99.90;;;;;;4188503;28;20089;-62
2022/05/27 02:30:54;;;;;;;5.87;1.10;;;14.00;99.90;;;;;;4188877;28;20090;-64
2022/05/27 02:35:27;;;;;;;2.93;1.33;;;14.00;99.90;;;;;;4188162;28;20086;-65
2022/05/27 02:37:44;;;;;;;3.90;1.50;;;14.00;99.90;;;;;;4187331;28;20024;-62
2022/05/27 02:39:45;;;;;;;7.23;1.43;;;14.00;99.90;;;;;;4189068;28;20067;-64
2022/05/27 02:42:01;;;;;;;3.37;1.47;;;13.90;99.90;;;;;;4187863;28;20024;-63
2022/05/27 02:44:09;;;;;;;3.23;1.30;;;13.90;99.90;;;;;;4187009;28;20086;-64
2022/05/27 02:46:44;;;;;;;2.87;1.40;;;13.90;99.90;;;;;;4188009;28;20024;-65
2022/05/27 02:49:10;;;;;;;5.00;1.00;;;13.90;99.90;;;;;;4188828;28;20044;-64
2022/05/27 02:51:32;;;;;;;2.33;1.10;;;13.90;99.90;;;;;;4188519;28;20520;-63
2022/05/27 02:54:00;;;;;;;3.17;1.07;;;13.90;99.90;;;;;;4188447;28;20439;-64
2022/05/27 02:56:04;;;;;;;2.17;1.00;;;13.90;99.90;;;;;;4155875;28;20046;-63
2022/05/27 02:58:06;;;;;;;2.90;1.30;;;13.90;99.90;;;;;;4155321;28;20029;-63
2022/05/27 03:00:15;;;;;;;2.57;1.33;;;14.00;99.90;;;;;;4155395;28;20103;-65
2022/05/27 03:02:17;;;;;;;6.03;1.20;;;14.10;99.90;;;;;;4155590;28;20026;-63
2022/05/27 03:04:20;;;;;;;3.27;1.20;;;14.10;99.90;;;;;;4155501;28;20083;-63
2022/05/27 03:06:21;;;;;;;10.23;1.77;;;14.20;99.90;;;;;;4168024;28;20090;-63
2022/05/27 03:08:22;;;;;;;2.03;1.10;;;14.30;99.90;;;;;;4185070;28;20041;-64
2022/05/27 03:10:31;;;;;;;2.63;0.93;;;14.50;99.90;;;;;;4172133;28;20078;-63
2022/05/27 03:12:53;;;;;;;2.87;1.07;;;14.90;99.90;;;;;;4171166;28;20501;-63
2022/05/27 03:15:07;;;;;;;2.13;1.10;;;15.30;99.90;;;;;;4172259;28;20049;-63
2022/05/27 03:17:32;;;;;;;3.00;1.30;;;15.80;99.90;;;;;;4172234;28;20036;-63
2022/05/27 03:19:45;;;;;;;4.45;1.17;;;16.30;99.90;;;;;;4172094;28;20082;-63
2022/05/27 03:22:03;;;;;;;3.03;1.48;;;16.70;99.90;;;;;;4171553;28;20090;-62
2022/05/27 03:24:20;;;;;;;1.45;1.27;;;16.90;99.90;;;;;;4155431;28;20025;-63
2022/05/27 03:26:30;;;;;;;4.07;0.95;;;16.90;99.90;;;;;;4157730;28;20021;-63
2022/05/27 03:29:02;;;;;;;2.88;1.02;;;16.80;99.90;;;;;;4158113;28;20088;-64
2022/05/27 03:31:08;;;;;;;1.20;0.98;;;16.60;99.90;;;;;;4166746;28;20037;-63
2022/05/27 03:33:51;;;;;;;2.97;1.02;;;16.40;99.90;;;;;;4176582;28;20029;-63
2022/05/27 03:36:21;;;;;;;1.95;1.00;;;16.20;99.90;;;;;;4189442;28;20584;-64
2022/05/27 03:38:44;;;;;;;2.47;1.13;;;16.00;99.90;;;;;;4190251;28;20431;-64
2022/05/27 03:40:56;;;;;;;4.50;1.20;;;16.00;99.90;;;;;;4186921;28;20828;-63
2022/05/27 03:42:57;;;;;;;1.83;0.98;;;16.30;99.90;;;;;;4174503;28;20037;-63
2022/05/27 03:45:14;;;;;;;4.18;1.20;;;16.30;99.90;;;;;;4174681;28;20041;-63
2022/05/27 03:47:16;;;;;;;1.35;0.65;;;16.50;99.90;;;;;;4174019;28;20432;-63
2022/05/27 03:49:17;;;;;;;2.92;1.15;;;16.40;99.90;;;;;;4173411;28;20567;-64
2022/05/27 03:51:22;;;;;;;0.93;0.88;;;16.30;99.90;;;;;;4173730;28;20091;-64
2022/05/27 03:54:03;;;;;;;1.33;0.70;;;16.30;99.90;;;;;;4174711;28;20041;-64
2022/05/27 03:55:44;;;;;;;1.30;1.00;;;16.20;99.90;;;;;;4173457;28;20029;-64
2022/05/27 03:57:46;;;;;;;3.80;1.10;;;16.10;99.90;;;;;;4174741;28;20056;-67
2022/05/27 03:59:47;;;;;;;2.67;1.23;;;16.10;99.90;;;;;;4189774;28;20020;-64
2022/05/27 04:01:51;;;;;;;2.75;0.98;;;16.10;99.90;;;;;;4185313;28;20092;-66
2022/05/27 04:03:53;;;;;;;5.97;1.77;;;15.90;99.90;;;;;;4173947;28;20504;-64
2022/05/27 04:05:54;;;;;;;2.13;1.02;;;15.90;99.90;;;;;;4179247;28;20097;-65
2022/05/27 04:07:56;;;;;;;4.78;1.10;;;15.80;99.90;;;;;;4190443;28;20124;-66
2022/05/27 04:09:59;;;;;;;3.47;1.08;;;15.90;99.90;;;;;;4190043;28;20052;-65
2022/05/27 04:12:00;;;;;;;1.30;0.80;;;15.80;99.90;;;;;;4189976;28;20036;-65
2022/05/27 04:14:01;;;;;;;4.22;1.27;;;15.80;99.90;;;;;;4189798;28;20040;-63
2022/05/27 04:16:02;;;;;;;1.73;1.25;;;15.80;99.90;;;;;;4183960;28;20509;-63
2022/05/27 04:18:03;;;;;;;4.05;1.00;;;15.80;99.90;;;;;;4189317;28;20036;-62
2022/05/27 04:20:11;;;;;;;2.25;1.27;;;15.80;99.90;;;;;;4190249;28;20469;-67
2022/05/27 04:22:12;;;;;;;2.85;1.05;;;15.70;99.90;;;;;;4186892;28;20063;-61
2022/05/27 04:24:13;;;;;;;2.28;1.00;;;15.70;99.90;;;;;;4189650;28;20125;-65
2022/05/27 04:26:14;;;;;;;1.90;1.00;;;15.70;99.90;;;;;;4189799;28;20090;-65
2022/05/27 04:28:16;;;;;;;6.35;1.10;;;15.70;99.90;;;;;;4190194;28;20558;-62
2022/05/27 04:30:20;;;;;;;11.30;1.38;;;15.70;99.90;;;;;;4186124;28;20374;-61
2022/05/27 04:32:22;;;;;;;5.40;1.25;;;15.80;99.90;;;;;;4163296;28;20114;-62
2022/05/27 04:34:23;;;;;;;3.83;1.20;;;15.80;99.90;;;;;;4172551;28;20619;-63
2022/05/27 04:36:24;;;;;;;2.85;1.00;;;15.90;99.90;;;;;;4172721;28;20096;-62
2022/05/27 04:38:26;;;;;;;2.80;1.17;;;15.90;99.90;;;;;;4171139;28;20029;-62
2022/05/27 04:40:27;;;;;;;1.52;0.98;;;16.00;99.90;;;;;;4172089;28;20045;-64
2022/05/27 04:42:28;;;;;;;4.90;1.60;;;16.10;99.90;;;;;;4172843;28;20029;-62
2022/05/27 04:44:30;;;;;;;5.05;1.48;;;16.10;99.90;;;;;;4172862;28;20500;-64
2022/05/27 04:46:31;;;;;;;4.18;1.40;;;16.20;99.90;;;;;;4172998;28;20041;-61
2022/05/27 04:48:32;;;;;;;3.72;1.42;;;16.30;99.90;;;;;;4173631;28;20036;-62
2022/05/27 04:50:34;;;;;;;3.15;1.38;;;16.30;99.90;;;;;;4189258;28;20033;-63
2022/05/27 04:52:35;;;;;;;4.60;1.60;;;16.40;99.90;;;;;;4185955;28;20519;-62
2022/05/27 04:54:37;;;;;;;4.28;1.50;;;16.40;99.90;;;;;;4174376;28;20397;-61
2022/05/27 04:56:38;;;;;;;3.33;1.52;;;16.50;99.90;;;;;;4188312;28;20032;-61
2022/05/27 04:58:39;;;;;;;3.75;2.03;;;16.60;99.90;;;;;;4189337;28;20032;-61
2022/05/27 05:00:44;;;;;;;4.82;1.38;;;16.60;99.90;;;;;;4188951;28;20546;-62
2022/05/27 05:02:45;;;;;;;2.63;1.63;;;16.70;99.90;;;;;;4189383;28;20020;-66
2022/05/27 05:04:46;;;;;;;2.80;1.50;;;16.70;99.90;;;;;;4189639;28;20493;-62
2022/05/27 05:06:47;;;;;;;5.38;1.63;;;16.80;99.90;;;;;;4189501;28;20560;-63
2022/05/27 05:08:49;;;;;;;3.67;1.83;;;16.80;99.90;;;;;;4187287;28;20060;-63
2022/05/27 05:10:50;;;;;;;2.95;1.60;;;16.90;99.90;;;;;;4189108;28;20473;-61
2022/05/27 05:12:52;;;;;;;2.80;1.27;;;16.90;99.90;;;;;;4188872;28;20114;-61
2022/05/27 05:14:53;;;;;;;3.42;1.42;;;17.00;99.90;;;;;;4189127;28;20032;-67
2022/05/27 05:16:54;;;;;;;4.97;1.40;;;17.00;99.90;;;;;;4189361;28;20094;-62
2022/05/27 05:18:56;;;;;;;4.90;1.65;;;17.10;99.90;;;;;;4189561;28;20040;-62
2022/05/27 05:20:57;;;;;;;2.00;1.33;;;17.10;99.90;;;;;;4188411;28;20152;-62
2022/05/27 05:22:58;;;;;;;3.97;1.63;;;17.20;99.90;;;;;;4189006;28;20045;-62
2022/05/27 05:24:59;;;;;;;9.93;2.08;;;17.20;99.90;;;;;;4188785;28;20052;-61
2022/05/27 05:27:00;;;;;;;7.18;1.50;;;17.20;99.90;;;;;;4188632;28;20036;-61
2022/05/27 05:29:01;;;;;;;9.73;1.83;;;17.30;99.90;;;;;;4186532;28;20056;-63
2022/05/27 05:31:03;;;;;;;3.83;1.70;;;17.20;99.90;;;;;;4169525;28;20897;-62
2022/05/27 05:33:04;;;;;;;8.95;1.73;;;17.20;99.90;;;;;;4170531;28;20456;-62
2022/05/27 05:35:07;;;;;;;7.97;1.65;;;17.20;99.90;;;;;;4170979;28;20049;-64
2022/05/27 05:37:08;;;;;;;2.40;1.50;;;17.30;99.90;;;;;;4171559;28;20044;-63
2022/05/27 05:39:10;;;;;;;8.02;1.60;;;17.30;99.90;;;;;;4171131;28;20036;-64
2022/05/27 05:41:11;;;;;;;3.97;1.70;;;17.30;99.90;;;;;;4178519;28;20067;-60
2022/05/27 05:43:13;;;;;;;4.18;1.60;;;17.30;99.90;;;;;;4185318;28;20087;-64
2022/05/27 05:45:16;;;;;;;5.35;1.92;;;17.30;99.90;;;;;;4172567;28;20048;-61
2022/05/27 05:47:18;;;;;;;8.13;1.80;;;17.20;99.90;;;;;;4171394;28;20120;-64
2022/05/27 05:49:19;;;;;;;7.10;2.08;;;17.30;99.90;;;;;;4182813;28;20085;-65
2022/05/27 05:51:21;;;;;;;4.65;1.90;;;17.40;99.90;;;;;;4189132;28;20093;-64
2022/05/27 05:53:22;;;;;;;6.80;1.80;;;17.30;99.90;;;;;;4189033;28;20037;-63
2022/05/27 05:55:24;;;;;;;5.50;1.98;;;17.40;99.90;;;;;;4188549;28;20033;-64
2022/05/27 05:57:25;;;;;;;3.05;1.50;;;17.50;99.90;;;;;;4188839;28;20067;-64
2022/05/27 05:59:30;;;;;;;4.32;2.35;;;17.60;99.90;;;;;;4160436;28;20033;-66
2022/05/27 06:01:31;;;;;;;5.07;1.65;;;17.80;99.90;;;;;;4166415;28;20090;-63
2022/05/27 06:03:32;;;;;;;13.32;3.05;;;18.00;99.90;;;;;;4172310;28;20106;-63
2022/05/27 06:05:33;;;;;;;5.97;1.83;;;18.20;99.90;;;;;;4170891;28;20033;-63
2022/05/27 06:07:35;;;;;;;3.50;1.55;;;18.50;99.90;;;;;;4172237;28;20135;-63
2022/05/27 06:09:37;;;;;;;8.07;1.80;;;19.00;99.90;;;;;;4171324;28;20029;-63
2022/05/27 06:11:38;;;;;;;9.75;3.20;;;19.50;99.90;;;;;;4172873;28;20032;-65
2022/05/27 06:13:42;;;;;;;3.97;2.78;;;19.80;99.90;;;;;;4171842;28;20559;-66
2022/05/27 06:15:43;;;;;;;9.00;1.95;;;20.30;99.90;;;;;;4172468;28;20079;-64
2022/05/27 06:17:44;;;;;;;4.70;1.63;;;21.00;99.90;;;;;;4177407;28;20083;-68
2022/05/27 06:19:46;;;;;;;5.85;1.60;;;21.70;99.90;;;;;;4169793;28;20590;-64
2022/05/27 06:21:47;;;;;;;5.03;1.83;;;22.30;99.90;;;;;;4171768;28;20037;-64
2022/05/27 06:23:48;;;;;;;3.85;1.77;;;22.80;99.30;;;;;;4171658;28;20029;-63
2022/05/27 06:25:55;;;;;;;4.85;2.00;;;22.80;98.70;;;;;;4171653;28;20086;-64
2022/05/27 06:34:55;;;;;;;6.40;1.48;;;23.40;97.30;;;;;;4155211;28;20096;-65
2022/05/27 06:37:08;;;;;;;5.00;1.63;;;23.70;96.60;;;;;;4155209;28;20482;-63
2022/05/27 06:39:09;;;;;;;1.83;1.02;;;23.60;96.00;;;;;;4155010;28;20109;-63
2022/05/27 06:41:10;;;;;;;6.35;1.35;;;;;;;;;;4155056;28;20045;-64
2022/05/27 06:43:12;;;;;;;4.40;1.48;;;;;;;;;;4155507;28;20521;-64
2022/05/27 06:45:14;;;;;;;5.50;1.88;;;;;;;;;;4157461;28;20405;-64
2022/05/27 06:47:15;;;;;;;9.18;1.88;;;;;;;;;;4187562;28;20571;-63
2022/05/27 06:49:17;;;;;;;3.53;1.90;;;23.80;95.90;;;;;;4185244;28;20029;-64
2022/05/27 06:51:18;;;;;;;8.98;3.60;;;24.30;93.90;;;;;;4170721;28;20029;-64
2022/05/27 06:53:20;;;;;;;6.68;4.07;;;24.30;93.60;;;;;;4171309;28;20049;-64
2022/05/27 06:55:22;;;;;;;3.55;3.22;;;;;;;;;;4171162;28;20029;-63
2022/05/27 06:57:23;;;;;;;7.32;3.67;;;;;;;;;;4170624;28;20033;-63
2022/05/27 06:59:24;;;;;;;5.22;1.83;;;;;;;;;;4172098;28;20079;-64
2022/05/27 07:01:26;;;;;;;6.75;2.03;;;;;;;;;;4175037;28;20063;-63
2022/05/27 07:03:27;;;;;;;10.85;3.67;;;;;;;;;;4175591;28;20025;-63
2022/05/27 07:05:28;;;;;;;4.15;1.20;;;;;;;;;;4188838;28;20562;-67
2022/05/27 07:07:31;;;;;;;7.82;1.60;;;;;;;;;;4191240;28;20050;-64
2022/05/27 07:09:35;;;;;;;5.25;1.60;;;;;;;;;;4191299;28;20051;-64
2022/05/27 07:11:37;;;;;;;5.38;1.63;;;;;;;;;;4189798;28;20082;-63
2022/05/27 07:13:39;;;;;;;11.55;2.28;;;;;;;;;;4190760;28;20526;-63
2022/05/27 07:15:41;;;;;;;11.75;2.00;;;24.50;93.40;;;;;;4190697;28;20029;-65
2022/05/27 07:17:43;;;;;;;6.53;1.92;;;25.50;89.00;;;;;;4191276;28;20025;-63
2022/05/27 07:19:44;;;;;;;7.25;1.60;;;25.10;89.70;;;;;;4191109;28;20028;-66
2022/05/27 07:21:46;;;;;;;4.40;0.98;;;;;;;;;;4190733;28;20514;-63
2022/05/27 07:23:47;;;;;;;3.40;0.70;;;;;;;;;;4190907;28;20025;-63
2022/05/27 07:25:49;;;;;;;2.33;0.93;;;;;;;;;;4191308;28;20077;-63
2022/05/27 07:27:50;;;;;;;3.65;0.80;;;;;;;;;;4190337;28;20497;-63
2022/05/27 07:29:51;;;;;;;1.58;0.52;;;;;;;;;;4190798;28;20037;-64
2022/05/27 07:31:53;;;;;;;1.15;0.90;;;;;;;;;;4190437;28;20090;-64
2022/05/27 07:33:54;;;;;;;1.65;0.60;;;;;;;;;;4190879;28;20086;-67
2022/05/27 07:35:56;;;;;;;4.13;1.10;;;;;;;;;;4189844;28;20036;-63
2022/05/27 07:37:57;;;;;;;1.45;0.77;;;;;;;;;;4191085;28;20781;-63
2022/05/27 07:39:58;;;;;;;4.28;0.40;;;;;;;;;;4190520;28;20056;-64
2022/05/27 07:41:59;;;;;;;6.60;1.95;;;25.10;90.10;;;;;;4190435;28;20024;-63
2022/05/27 07:44:01;;;;;;;2.35;0.77;;;25.00;86.40;;;;;;4190693;28;20449;-65
2022/05/27 07:46:02;;;;;;;2.63;0.80;;;24.60;87.30;;;;;;4190708;28;20037;-66
2022/05/27 07:48:05;;;;;;;2.50;1.10;;;24.60;87.80;;;;;;4190757;28;20110;-63
2022/05/27 07:50:07;;;;;;;5.70;0.80;;;;;;;;;;4190587;28;20059;-63
2022/05/27 07:52:08;;;;;;;0.98;0.50;;;;;;;;;;4190580;28;20074;-64
2022/05/27 07:54:11;;;;;;;1.95;0.70;;;;;;;;;;4190285;28;20044;-63
2022/05/27 07:56:13;;;;;;;5.90;1.00;;;;;;;;;;4190445;28;20074;-67
2022/05/27 07:58:15;;;;;;;0.57;0.40;;;;;;;;;;4190095;28;20037;-63
2022/05/27 08:00:17;;;;;;;1.10;0.70;;;;;;;;;;4190537;28;20640;-63
2022/05/27 08:02:19;;;;;;;2.03;0.50;;;;;;;;;;4189944;28;20439;-62
2022/05/27 08:04:20;;;;;;;4.32;0.70;;;;;;;;;;4190384;28;20106;-64
2022/05/27 08:06:22;;;;;;;6.47;0.90;;;;;;;;;;4189714;28;20098;-65
2022/05/27 08:08:23;;;;;;;2.67;0.60;;;;;;;;;;4190440;28;20036;-66
2022/05/27 08:10:27;;;;;;;11.05;6.10;;;24.60;87.90;;;;;;4189449;28;20020;-66
2022/05/27 08:12:29;;;;;;;4.32;1.65;;;25.20;85.70;;;;;;4188647;28;20630;-64
2022/05/27 08:14:30;;;;;;;1.58;0.52;;;25.30;86.00;;;;;;4189395;28;20081;-63
2022/05/27 08:16:33;;;;;;;3.03;0.73;;;;;;;;;;4190329;28;20699;-64
2022/05/27 08:18:34;;;;;;;1.33;0.55;;;;;;;;;;4189754;28;20126;-64
2022/05/27 08:20:37;;;;;;;1.42;0.32;;;;;;;;;;4190436;28;20459;-63
2022/05/27 08:22:39;;;;;;;1.58;0.40;;;;;;;;;;4189578;28;20090;-65
2022/05/27 08:24:42;;;;;;;4.40;0.50;;;;;;;;;;4189830;28;20029;-62
2022/05/27 08:26:43;;;;;;;3.00;0.55;;;;;;;;;;4189304;28;20032;-63
2022/05/27 08:28:45;;;;;;;3.83;0.43;;;;;;;;;;4189542;28;20173;-64
2022/05/27 08:30:46;;;;;;;4.43;0.40;;;;;;;;;;4189665;28;20872;-62
2022/05/27 08:32:49;;;;;;;7.18;0.55;;;;;;;;;;4189091;28;20032;-63
2022/05/27 08:39:31;;;;;;;1.45;0.20;;;;;;;;;;4189437;28;20048;-63
2022/05/27 08:41:47;;;;;;;1.65;0.30;;;;;;;;;;4189350;28;20070;-63
2022/05/27 08:44:13;;;;;;;1.55;0.20;;;;;;;;;;4189439;28;20040;-62
2022/05/27 08:46:17;;;;;;;3.55;0.40;;;;;;;;;;4189841;28;20036;-63
2022/05/27 08:48:19;;;;;;;3.75;0.77;;;;;;;;;;4189459;28;20067;-63
2022/05/27 08:50:26;;;;;;;1.27;0.47;;;;;;;;;;4189848;28;20024;-62
2022/05/27 08:52:48;;;;;;;0.80;0.40;;;;;;;;;;4189268;28;20036;-63
2022/05/27 08:55:01;;;;;;;3.33;0.60;;;;;;;;;;4167929;28;20044;-64
2022/05/27 08:59:35;;;;;;;2.97;0.40;;;;;;;;;;4189682;28;20041;-64
2022/05/27 09:01:37;;;;;;;2.70;0.45;;;;;;;;;;4189455;28;20036;-64
2022/05/27 09:03:46;;;;;;;1.48;0.45;;;;;;;;;;4189680;28;20052;-62
2022/05/27 09:05:50;;;;;;;2.92;0.40;;;;;;;;;;4189344;28;20020;-65
2022/05/27 09:08:01;;;;;;;0.75;0.28;;;;;;;;;;4189274;28;20503;-62
2022/05/27 09:10:04;;;;;;;1.50;0.43;;;;;;;;;;4188587;28;20024;-65
2022/05/27 09:12:27;;;;;;;2.92;0.50;;;;;;;;;;4188832;28;20102;-68
2022/05/27 09:14:31;;;;;;;1.33;0.30;;;;;;;;;;4189060;28;20044;-64
2022/05/27 09:16:36;;;;;;;1.73;1.13;;;;;;;;;;4189028;28;20795;-62
2022/05/27 09:18:49;;;;;;;2.50;0.68;;;;;;;;;;4189222;28;20260;-64
2022/05/27 09:20:59;;;;;;;2.30;0.77;;;;;;;;;;4189273;28;20041;-64
2022/05/27 09:23:21;;;;;;;3.00;0.60;;;;;;;;;;4188462;28;20539;-63
2022/05/27 09:25:26;;;;;;;0.65;0.30;;;;;;;;;;4188763;28;20037;-63
2022/05/27 09:28:01;;;;;;;1.48;0.40;;;25.30;85.80;;;;;;4188786;28;20423;-63
2022/05/27 09:30:06;;;;;;;5.75;0.47;;;25.60;73.50;;;;;;4188729;28;20098;-64
2022/05/27 09:32:22;;;;;;;1.67;0.30;;;25.40;74.60;;;;;;4188600;28;20028;-62
2022/05/27 09:34:28;;;;;;;1.70;0.50;;;25.20;74.40;;;;;;4187114;28;20102;-62
2022/05/27 09:36:36;;;;;;;7.32;0.95;;;25.00;74.30;;;;;;4188498;28;20044;-63
2022/05/27 09:38:47;;;;;;;1.77;0.45;;;25.10;74.70;;;;;;4188439;28;21044;-62
2022/05/27 09:41:08;;;;;;;3.10;0.47;;;;;;;;;;4188574;28;20477;-62
2022/05/27 09:43:15;;;;;;;7.47;1.60;;;;;;;;;;4188419;28;20445;-63
2022/05/27 09:45:16;;;;;;;5.45;0.50;;;;;;;;;;4187983;28;20040;-67
2022/05/27 09:47:19;;;;;;;5.20;0.65;;;;;;;;;;4188321;28;20072;-64
2022/05/27 09:49:20;;;;;;;1.27;0.40;;;;;;;;;;4188404;28;20660;-67
2022/05/27 09:51:22;;;;;;;0.65;0.45;;;;;;;;;;4189000;28;20021;-62
2022/05/27 09:53:31;;;;;;;0.63;0.10;;;25.30;75.00;;;;;;4188045;28;20040;-63
2022/05/27 09:55:47;;;;;;;4.93;0.65;;;25.70;73.20;;;;;;4187931;28;20040;-63
2022/05/27 09:57:55;;;;;;;3.30;0.68;;;25.60;74.30;;;;;;4187982;28;20098;-63
2022/05/27 09:59:59;;;;;;;3.13;1.13;;;25.40;74.60;;;;;;4188822;28;20086;-63
2022/05/27 10:02:22;;;;;;;3.20;0.52;;;25.30;75.20;;;;;;4188335;28;20416;-62
2022/05/27 10:04:23;;;;;;;1.85;0.70;;;25.40;75.60;;;;;;4187999;28;20085;-64
2022/05/27 10:06:27;;;;;;;2.60;0.65;;;25.50;75.40;;;;;;4188532;28;20125;-64
2022/05/27 10:08:38;;;;;;;1.83;0.55;;;25.40;75.40;;;;;;4188561;28;20074;-64
2022/05/27 10:10:41;;;;;;;2.95;0.50;;;25.50;75.60;;;;;;4187975;28;20021;-64
2022/05/27 10:12:42;;;;;;;4.43;0.30;;;25.40;75.10;;;;;;4187959;28;20052;-62
2022/05/27 10:14:50;;;;;;;2.08;1.20;;;25.50;75.00;;;;;;4188567;28;20032;-66
2022/05/27 10:17:09;;;;;;;1.90;0.95;;;25.50;75.30;;;;;;4188567;28;20079;-64
2022/05/27 10:19:24;;;;;;;2.58;0.40;;;25.60;75.00;;;;;;4188555;28;20518;-66
2022/05/27 10:21:25;;;;;;;7.68;0.32;;;25.50;74.80;;;;;;4188898;28;20496;-64
2022/05/27 10:23:29;;;;;;;2.17;0.40;;;25.50;74.90;;;;;;4188113;28;20036;-63
2022/05/27 10:25:38;;;;;;;1.40;0.30;;;25.60;75.40;;;;;;4187711;28;20045;-63
2022/05/27 10:27:44;;;;;;;12.80;1.88;;;25.40;74.80;;;;;;4188554;28;20028;-63
2022/05/27 10:29:48;;;;;;;2.40;0.40;;;25.30;75.90;;;;;;4188557;28;20074;-65
2022/05/27 10:31:52;;;;;;;0.63;0.40;;;25.40;75.30;;;;;;4188388;28;20094;-64
2022/05/27 10:33:53;;;;;;;3.20;0.20;;;;;;;;;;4187833;28;20064;-64
2022/05/27 10:35:55;;;;;;;2.88;0.80;;;;;;;;;;4190382;28;20086;-66
2022/05/27 10:38:10;;;;;;;0.43;0.20;;;;;;;;;;4191106;28;20767;-63
2022/05/27 10:40:20;;;;;;;0.35;0.20;;;;;;;;;;4191434;28;20032;-64
2022/05/27 10:42:21;;;;;;;;;;;;;;;;;;4191396;28;20501;-64
2022/05/27 10:44:47;;;;;;;1.10;0.30;;;;;;;;;;4191781;28;19908;-62
2022/05/27 10:46:52;;;;;;;1.90;0.50;;;;;;;;;;4185403;28;20048;-62
2022/05/27 10:49:14;;;;;;;0.70;0.60;;;;;;;;;;4191238;28;20324;-66
2022/05/27 10:51:24;;;;;;;1.33;0.32;;;;;;;;;;4190851;28;20393;-64
2022/05/27 10:53:30;;;;;;;1.30;0.52;;;;;;;;;;4190833;28;20054;-62
2022/05/27 10:55:50;;;;;;;0.65;0.40;;;;;;;;;;4190922;28;20122;-66
2022/05/27 11:02:49;;;;;;;1.38;0.45;;;;;;;;;;4191254;28;20033;-63
2022/05/27 11:05:15;;;;;;;0.82;0.30;;;;;;;;;;4190828;28;20097;-62
2022/05/27 11:07:17;;;;;;;2.95;0.70;;;;;;;;;;4191251;28;20040;-64
2022/05/27 11:09:18;;;;;;;4.72;0.30;;;;;;;;;;4190953;28;20028;-63
2022/05/27 11:11:25;;;;;;;2.45;0.32;;;;;;;;;;4190569;28;20032;-64
2022/05/27 11:16:18;;;;;;;1.20;0.20;;;;;;;;;;4190979;28;20032;-63
2022/05/27 11:18:45;;;;;;;0.68;0.28;;;25.60;73.80;;;;;;4190874;28;20950;-62
2022/05/27 11:20:54;;;;;;;1.67;0.40;;;25.70;72.20;;;;;;4191526;28;20425;-63
2022/05/27 11:23:04;;;;;;;2.88;0.63;;;25.50;72.70;;;;;;4191261;28;20497;-64
2022/05/27 11:25:19;;;;;;;2.13;0.32;;;25.50;73.00;;;;;;4190549;28;20089;-63
2022/05/27 11:27:44;;;;;;;3.42;2.92;;;25.50;72.80;;;;;;4190618;28;20040;-63
2022/05/27 11:30:08;;;;;;;2.72;0.70;;;25.50;72.70;;;;;;4190480;28;20024;-63
2022/05/27 11:32:16;;;;;;;0.57;0.22;;;;;;;;;;4190151;28;20074;-64
2022/05/27 11:34:36;;;;;;;1.88;0.22;;;;;;;;;;4190267;28;20037;-63
2022/05/27 11:36:44;;;;;;;3.25;0.30;;;;;;;;;;4190515;28;20028;-63
2022/05/27 11:39:04;;;;;;;0.88;0.30;;;;;;;;;;4188417;28;20107;-63
2022/05/27 11:41:08;;;;;;;5.78;0.93;;;;;;;;;;4190048;28;20037;-64
2022/05/27 11:43:22;;;;;;;2.88;0.30;;;;;;;;;;4189707;28;20045;-64
2022/05/27 11:45:30;;;;;;;0.38;0.25;;;;;;;;;;4190426;28;20117;-64
2022/05/27 11:47:38;;;;;;;3.38;0.93;;;;;;;;;;4189897;28;20063;-65
2022/05/27 11:49:45;;;;;;;1.17;0.40;;;;;;;;;;4189877;28;20045;-64
2022/05/27 11:52:02;;;;;;;1.33;0.30;;;;;;;;;;4189940;28;20113;-63
2022/05/27 11:54:14;;;;;;;1.52;0.30;;;;;;;;;;4189911;28;20406;-63
2022/05/27 11:56:30;;;;;;;0.50;0.25;;;;;;;;;;4189777;28;20029;-63